sensor_id;sensor_type;location;lat;lon;timestamp;P1;durP1;ratioP1;P2;durP2;ratioP2
58470;SDS011;44258;51.288;12.068;2023-05-20T00:05:01;12.30;;;6.28;;
58470;SDS011;44258;51.288;12.068;2023-05-20T00:07:48;11.38;;;6.00;;
58470;SDS011;44258;51.288;12.068;2023-05-20T00:10:35;10.48;;;6.03;;
58470;SDS011;44258;51.288;12.068;2023-05-20T00:18:56;10.45;;;5.60;;
58470;SDS011;44258;51.288;12.068;2023-05-20T00:21:43;10.65;;;6.00;;
58470;SDS011;44258;51.288;12.068;2023-05-20T00:24:30;10.85;;;6.32;;
58470;SDS011;44258;51.288;12.068;2023-05-20T00:27:17;9.48;;;6.10;;
58470;SDS011;44258;51.288;12.068;2023-05-20T00:30:06;12.25;;;5.90;;
58470;SDS011;44258;51.288;12.068;2023-05-20T00:32:54;11.82;;;6.45;;
58470;SDS011;44258;51.288;12.068;2023-05-20T00:35:41;10.60;;;6.15;;
58470;SDS011;44258;51.288;12.068;2023-05-20T00:38:28;11.90;;;6.78;;
58470;SDS011;44258;51.288;12.068;2023-05-20T00:41:14;11.10;;;5.78;;
58470;SDS011;44258;51.288;12.068;2023-05-20T00:46:49;10.15;;;6.28;;
58470;SDS011;44258;51.288;12.068;2023-05-20T00:49:36;11.27;;;6.45;;
58470;SDS011;44258;51.288;12.068;2023-05-20T00:55:10;11.05;;;6.75;;
58470;SDS011;44258;51.288;12.068;2023-05-20T00:57:57;12.55;;;6.50;;
58470;SDS011;44258;51.288;12.068;2023-05-20T01:03:33;9.80;;;6.00;;
58470;SDS011;44258;51.288;12.068;2023-05-20T01:06:20;10.93;;;6.85;;
58470;SDS011;44258;51.288;12.068;2023-05-20T01:11:57;11.68;;;6.82;;
58470;SDS011;44258;51.288;12.068;2023-05-20T01:14:50;11.98;;;7.22;;
58470;SDS011;44258;51.288;12.068;2023-05-20T01:17:44;11.65;;;7.25;;
58470;SDS011;44258;51.288;12.068;2023-05-20T01:20:34;11.27;;;6.80;;
58470;SDS011;44258;51.288;12.068;2023-05-20T01:23:25;11.93;;;7.03;;
58470;SDS011;44258;51.288;12.068;2023-05-20T01:26:17;13.13;;;6.57;;
58470;SDS011;44258;51.288;12.068;2023-05-20T01:29:06;12.23;;;6.97;;
58470;SDS011;44258;51.288;12.068;2023-05-20T01:31:53;12.20;;;6.72;;
58470;SDS011;44258;51.288;12.068;2023-05-20T01:34:43;11.75;;;6.70;;
58470;SDS011;44258;51.288;12.068;2023-05-20T01:37:34;11.80;;;7.03;;
58470;SDS011;44258;51.288;12.068;2023-05-20T01:40:26;12.75;;;6.22;;
58470;SDS011;44258;51.288;12.068;2023-05-20T01:43:13;10.85;;;6.90;;
58470;SDS011;44258;51.288;12.068;2023-05-20T01:46:04;13.40;;;7.05;;
58470;SDS011;44258;51.288;12.068;2023-05-20T01:48:51;13.23;;;7.05;;
58470;SDS011;44258;51.288;12.068;2023-05-20T01:54:25;11.35;;;7.00;;
58470;SDS011;44258;51.288;12.068;2023-05-20T01:57:16;13.70;;;7.43;;
58470;SDS011;44258;51.288;12.068;2023-05-20T02:00:03;12.20;;;6.75;;
58470;SDS011;44258;51.288;12.068;2023-05-20T02:02:51;13.15;;;7.40;;
58470;SDS011;44258;51.288;12.068;2023-05-20T02:08:26;14.07;;;7.80;;
58470;SDS011;44258;51.288;12.068;2023-05-20T02:11:12;13.40;;;7.22;;
58470;SDS011;44258;51.288;12.068;2023-05-20T02:16:47;13.70;;;7.07;;
58470;SDS011;44258;51.288;12.068;2023-05-20T02:19:34;13.50;;;7.70;;
58470;SDS011;44258;51.288;12.068;2023-05-20T02:22:21;12.82;;;7.72;;
58470;SDS011;44258;51.288;12.068;2023-05-20T02:25:08;14.57;;;8.13;;
58470;SDS011;44258;51.288;12.068;2023-05-20T02:30:43;13.85;;;7.75;;
58470;SDS011;44258;51.288;12.068;2023-05-20T02:33:30;13.60;;;8.05;;
58470;SDS011;44258;51.288;12.068;2023-05-20T02:39:04;13.88;;;8.23;;
58470;SDS011;44258;51.288;12.068;2023-05-20T02:41:51;14.15;;;8.20;;
58470;SDS011;44258;51.288;12.068;2023-05-20T02:47:25;15.38;;;8.15;;
58470;SDS011;44258;51.288;12.068;2023-05-20T02:50:12;14.52;;;8.82;;
58470;SDS011;44258;51.288;12.068;2023-05-20T02:52:59;14.05;;;8.23;;
58470;SDS011;44258;51.288;12.068;2023-05-20T02:55:46;15.38;;;9.10;;
58470;SDS011;44258;51.288;12.068;2023-05-20T02:58:33;15.30;;;9.10;;
58470;SDS011;44258;51.288;12.068;2023-05-20T03:04:08;14.25;;;8.45;;
58470;SDS011;44258;51.288;12.068;2023-05-20T03:06:55;15.88;;;9.05;;
58470;SDS011;44258;51.288;12.068;2023-05-20T03:09:43;17.23;;;8.95;;
58470;SDS011;44258;51.288;12.068;2023-05-20T03:12:30;15.82;;;9.25;;
58470;SDS011;44258;51.288;12.068;2023-05-20T03:15:17;16.00;;;9.50;;
58470;SDS011;44258;51.288;12.068;2023-05-20T03:20:52;15.60;;;9.70;;
58470;SDS011;44258;51.288;12.068;2023-05-20T03:23:39;17.42;;;11.10;;
58470;SDS011;44258;51.288;12.068;2023-05-20T03:26:26;17.85;;;10.00;;
58470;SDS011;44258;51.288;12.068;2023-05-20T03:29:15;18.33;;;10.82;;
58470;SDS011;44258;51.288;12.068;2023-05-20T03:32:02;18.58;;;10.65;;
58470;SDS011;44258;51.288;12.068;2023-05-20T03:34:49;19.73;;;11.52;;
58470;SDS011;44258;51.288;12.068;2023-05-20T03:37:38;18.75;;;9.85;;
58470;SDS011;44258;51.288;12.068;2023-05-20T03:40:25;20.25;;;10.80;;
58470;SDS011;44258;51.288;12.068;2023-05-20T03:45:59;20.10;;;11.63;;
58470;SDS011;44258;51.288;12.068;2023-05-20T03:51:32;20.42;;;11.02;;
58470;SDS011;44258;51.288;12.068;2023-05-20T03:54:23;18.90;;;10.80;;
58470;SDS011;44258;51.288;12.068;2023-05-20T03:57:12;21.13;;;12.00;;
58470;SDS011;44258;51.288;12.068;2023-05-20T04:02:34;22.45;;;12.93;;
58470;SDS011;44258;51.288;12.068;2023-05-20T04:08:08;21.00;;;12.25;;
58470;SDS011;44258;51.288;12.068;2023-05-20T04:10:59;19.70;;;12.07;;
58470;SDS011;44258;51.288;12.068;2023-05-20T04:13:46;20.65;;;11.60;;
58470;SDS011;44258;51.288;12.068;2023-05-20T04:16:32;21.55;;;11.90;;
58470;SDS011;44258;51.288;12.068;2023-05-20T04:19:21;21.67;;;12.43;;
58470;SDS011;44258;51.288;12.068;2023-05-20T04:22:12;21.73;;;13.13;;
58470;SDS011;44258;51.288;12.068;2023-05-20T04:27:49;22.75;;;12.52;;
58470;SDS011;44258;51.288;12.068;2023-05-20T04:30:38;23.20;;;12.80;;
58470;SDS011;44258;51.288;12.068;2023-05-20T04:33:26;20.88;;;12.40;;
58470;SDS011;44258;51.288;12.068;2023-05-20T04:39:01;21.70;;;11.55;;
58470;SDS011;44258;51.288;12.068;2023-05-20T04:41:49;20.17;;;11.75;;
58470;SDS011;44258;51.288;12.068;2023-05-20T04:44:40;21.30;;;11.68;;
58470;SDS011;44258;51.288;12.068;2023-05-20T04:47:27;21.75;;;13.13;;
58470;SDS011;44258;51.288;12.068;2023-05-20T04:50:14;18.77;;;10.98;;
58470;SDS011;44258;51.288;12.068;2023-05-20T04:53:01;19.65;;;11.32;;
58470;SDS011;44258;51.288;12.068;2023-05-20T04:55:48;20.52;;;11.85;;
58470;SDS011;44258;51.288;12.068;2023-05-20T04:58:38;21.35;;;12.57;;
58470;SDS011;44258;51.288;12.068;2023-05-20T05:01:26;19.45;;;10.57;;
58470;SDS011;44258;51.288;12.068;2023-05-20T05:04:13;21.40;;;12.30;;
58470;SDS011;44258;51.288;12.068;2023-05-20T05:07:00;21.30;;;13.40;;
58470;SDS011;44258;51.288;12.068;2023-05-20T05:09:46;24.65;;;13.48;;
58470;SDS011;44258;51.288;12.068;2023-05-20T05:12:33;19.77;;;11.85;;
58470;SDS011;44258;51.288;12.068;2023-05-20T05:15:20;22.42;;;13.95;;
58470;SDS011;44258;51.288;12.068;2023-05-20T05:18:11;20.70;;;11.38;;
58470;SDS011;44258;51.288;12.068;2023-05-20T05:21:04;21.30;;;12.68;;
58470;SDS011;44258;51.288;12.068;2023-05-20T05:23:52;20.25;;;12.38;;
58470;SDS011;44258;51.288;12.068;2023-05-20T05:26:38;21.50;;;12.63;;
58470;SDS011;44258;51.288;12.068;2023-05-20T05:32:12;20.65;;;14.10;;
58470;SDS011;44258;51.288;12.068;2023-05-20T05:35:02;20.48;;;12.15;;
58470;SDS011;44258;51.288;12.068;2023-05-20T05:37:51;23.15;;;13.15;;
58470;SDS011;44258;51.288;12.068;2023-05-20T05:40:38;19.88;;;12.02;;
58470;SDS011;44258;51.288;12.068;2023-05-20T05:43:25;21.00;;;13.98;;
58470;SDS011;44258;51.288;12.068;2023-05-20T05:49:01;23.65;;;13.50;;
58470;SDS011;44258;51.288;12.068;2023-05-20T05:51:50;21.65;;;13.52;;
58470;SDS011;44258;51.288;12.068;2023-05-20T05:54:37;22.08;;;13.55;;
58470;SDS011;44258;51.288;12.068;2023-05-20T05:57:26;26.52;;;12.80;;
58470;SDS011;44258;51.288;12.068;2023-05-20T06:00:17;21.77;;;11.98;;
58470;SDS011;44258;51.288;12.068;2023-05-20T06:03:04;21.27;;;12.40;;
58470;SDS011;44258;51.288;12.068;2023-05-20T06:08:39;22.15;;;13.25;;
58470;SDS011;44258;51.288;12.068;2023-05-20T06:11:26;22.30;;;11.88;;
58470;SDS011;44258;51.288;12.068;2023-05-20T06:14:13;20.10;;;11.45;;
58470;SDS011;44258;51.288;12.068;2023-05-20T06:17:06;21.38;;;11.82;;
58470;SDS011;44258;51.288;12.068;2023-05-20T06:19:53;20.30;;;11.52;;
58470;SDS011;44258;51.288;12.068;2023-05-20T06:25:28;22.08;;;12.10;;
58470;SDS011;44258;51.288;12.068;2023-05-20T06:28:15;20.95;;;11.80;;
58470;SDS011;44258;51.288;12.068;2023-05-20T06:33:48;19.02;;;11.50;;
58470;SDS011;44258;51.288;12.068;2023-05-20T06:36:35;21.35;;;11.30;;
58470;SDS011;44258;51.288;12.068;2023-05-20T06:42:12;17.73;;;10.13;;
58470;SDS011;44258;51.288;12.068;2023-05-20T06:45:01;20.23;;;12.30;;
58470;SDS011;44258;51.288;12.068;2023-05-20T06:47:48;20.42;;;13.57;;
58470;SDS011;44258;51.288;12.068;2023-05-20T06:50:34;23.00;;;11.38;;
58470;SDS011;44258;51.288;12.068;2023-05-20T06:53:21;20.40;;;12.35;;
58470;SDS011;44258;51.288;12.068;2023-05-20T06:56:09;19.13;;;11.25;;
58470;SDS011;44258;51.288;12.068;2023-05-20T07:04:30;20.77;;;11.27;;
58470;SDS011;44258;51.288;12.068;2023-05-20T07:07:17;20.40;;;12.15;;
58470;SDS011;44258;51.288;12.068;2023-05-20T07:12:55;21.05;;;13.77;;
58470;SDS011;44258;51.288;12.068;2023-05-20T07:15:46;17.80;;;10.48;;
58470;SDS011;44258;51.288;12.068;2023-05-20T07:18:33;19.73;;;10.50;;
58470;SDS011;44258;51.288;12.068;2023-05-20T07:21:20;20.55;;;11.57;;
58470;SDS011;44258;51.288;12.068;2023-05-20T07:27:02;19.98;;;11.48;;
58470;SDS011;44258;51.288;12.068;2023-05-20T07:29:53;19.85;;;11.32;;
58470;SDS011;44258;51.288;12.068;2023-05-20T07:35:28;19.25;;;11.23;;
58470;SDS011;44258;51.288;12.068;2023-05-20T07:38:19;20.77;;;12.10;;
58470;SDS011;44258;51.288;12.068;2023-05-20T07:41:07;19.30;;;11.25;;
58470;SDS011;44258;51.288;12.068;2023-05-20T07:43:54;20.00;;;12.57;;
58470;SDS011;44258;51.288;12.068;2023-05-20T07:49:30;20.55;;;12.45;;
58470;SDS011;44258;51.288;12.068;2023-05-20T07:52:17;20.58;;;12.73;;
58470;SDS011;44258;51.288;12.068;2023-05-20T07:55:07;22.23;;;12.10;;
58470;SDS011;44258;51.288;12.068;2023-05-20T07:57:57;21.90;;;12.63;;
58470;SDS011;44258;51.288;12.068;2023-05-20T08:03:31;20.90;;;12.52;;
58470;SDS011;44258;51.288;12.068;2023-05-20T08:06:20;23.42;;;14.20;;
58470;SDS011;44258;51.288;12.068;2023-05-20T08:09:09;23.08;;;14.20;;
58470;SDS011;44258;51.288;12.068;2023-05-20T08:11:57;22.80;;;13.65;;
58470;SDS011;44258;51.288;12.068;2023-05-20T08:17:31;23.80;;;13.88;;
58470;SDS011;44258;51.288;12.068;2023-05-20T08:20:18;23.67;;;13.23;;
58470;SDS011;44258;51.288;12.068;2023-05-20T08:23:06;23.55;;;13.52;;
58470;SDS011;44258;51.288;12.068;2023-05-20T08:25:54;23.33;;;12.65;;
58470;SDS011;44258;51.288;12.068;2023-05-20T08:28:41;21.35;;;12.60;;
58470;SDS011;44258;51.288;12.068;2023-05-20T08:31:28;24.52;;;13.63;;
58470;SDS011;44258;51.288;12.068;2023-05-20T08:34:15;26.25;;;14.30;;
58470;SDS011;44258;51.288;12.068;2023-05-20T08:37:02;22.52;;;11.48;;
58470;SDS011;44258;51.288;12.068;2023-05-20T08:39:50;22.60;;;13.00;;
58470;SDS011;44258;51.288;12.068;2023-05-20T08:42:40;23.58;;;13.25;;
58470;SDS011;44258;51.288;12.068;2023-05-20T08:45:29;22.23;;;12.57;;
58470;SDS011;44258;51.288;12.068;2023-05-20T08:48:19;22.85;;;12.85;;
58470;SDS011;44258;51.288;12.068;2023-05-20T08:51:09;25.25;;;13.23;;
58470;SDS011;44258;51.288;12.068;2023-05-20T08:53:58;23.52;;;13.32;;
58470;SDS011;44258;51.288;12.068;2023-05-20T08:56:46;22.00;;;11.20;;
58470;SDS011;44258;51.288;12.068;2023-05-20T08:59:33;22.85;;;12.73;;
58470;SDS011;44258;51.288;12.068;2023-05-20T09:02:21;20.65;;;10.82;;
58470;SDS011;44258;51.288;12.068;2023-05-20T09:05:09;20.38;;;12.15;;
58470;SDS011;44258;51.288;12.068;2023-05-20T09:08:03;23.77;;;13.50;;
58470;SDS011;44258;51.288;12.068;2023-05-20T09:10:51;21.98;;;13.93;;
58470;SDS011;44258;51.288;12.068;2023-05-20T09:13:40;21.75;;;11.60;;
58470;SDS011;44258;51.288;12.068;2023-05-20T09:16:27;19.85;;;10.02;;
58470;SDS011;44258;51.288;12.068;2023-05-20T09:19:14;22.90;;;13.65;;
58470;SDS011;44258;51.288;12.068;2023-05-20T09:24:51;18.92;;;9.60;;
58470;SDS011;44258;51.288;12.068;2023-05-20T09:27:39;19.45;;;9.80;;
58470;SDS011;44258;51.288;12.068;2023-05-20T09:30:27;21.10;;;10.73;;
58470;SDS011;44258;51.288;12.068;2023-05-20T09:33:17;20.00;;;10.70;;
58470;SDS011;44258;51.288;12.068;2023-05-20T09:36:06;20.65;;;11.45;;
58470;SDS011;44258;51.288;12.068;2023-05-20T09:38:57;23.20;;;11.02;;
58470;SDS011;44258;51.288;12.068;2023-05-20T09:41:51;19.58;;;11.05;;
58470;SDS011;44258;51.288;12.068;2023-05-20T09:44:43;19.90;;;11.70;;
58470;SDS011;44258;51.288;12.068;2023-05-20T09:47:32;22.38;;;11.27;;
58470;SDS011;44258;51.288;12.068;2023-05-20T09:50:20;22.27;;;12.07;;
58470;SDS011;44258;51.288;12.068;2023-05-20T09:53:09;16.90;;;8.05;;
58470;SDS011;44258;51.288;12.068;2023-05-20T09:55:57;19.20;;;10.25;;
58470;SDS011;44258;51.288;12.068;2023-05-20T09:58:46;21.33;;;11.77;;
58470;SDS011;44258;51.288;12.068;2023-05-20T10:01:35;20.63;;;12.18;;
58470;SDS011;44258;51.288;12.068;2023-05-20T10:07:21;22.15;;;12.43;;
58470;SDS011;44258;51.288;12.068;2023-05-20T10:10:24;20.33;;;11.10;;
58470;SDS011;44258;51.288;12.068;2023-05-20T10:13:22;21.92;;;11.50;;
58470;SDS011;44258;51.288;12.068;2023-05-20T10:16:25;23.00;;;12.45;;
58470;SDS011;44258;51.288;12.068;2023-05-20T10:19:27;23.48;;;12.95;;
58470;SDS011;44258;51.288;12.068;2023-05-20T10:22:24;22.55;;;12.85;;
58470;SDS011;44258;51.288;12.068;2023-05-20T10:25:23;22.20;;;10.70;;
58470;SDS011;44258;51.288;12.068;2023-05-20T10:28:13;23.00;;;11.98;;
58470;SDS011;44258;51.288;12.068;2023-05-20T10:31:13;25.10;;;11.82;;
58470;SDS011;44258;51.288;12.068;2023-05-20T10:34:01;23.20;;;11.93;;
58470;SDS011;44258;51.288;12.068;2023-05-20T10:36:57;22.27;;;11.75;;
58470;SDS011;44258;51.288;12.068;2023-05-20T10:39:44;21.87;;;12.00;;
58470;SDS011;44258;51.288;12.068;2023-05-20T10:45:24;24.60;;;12.13;;
58470;SDS011;44258;51.288;12.068;2023-05-20T10:48:18;22.85;;;11.90;;
58470;SDS011;44258;51.288;12.068;2023-05-20T10:51:10;20.75;;;10.38;;
58470;SDS011;44258;51.288;12.068;2023-05-20T10:54:02;21.58;;;10.93;;
58470;SDS011;44258;51.288;12.068;2023-05-20T10:56:50;20.23;;;10.52;;
58470;SDS011;44258;51.288;12.068;2023-05-20T10:59:37;21.08;;;12.45;;
58470;SDS011;44258;51.288;12.068;2023-05-20T11:02:24;21.17;;;10.82;;
58470;SDS011;44258;51.288;12.068;2023-05-20T11:05:12;17.38;;;9.85;;
58470;SDS011;44258;51.288;12.068;2023-05-20T11:08:03;19.33;;;11.13;;
58470;SDS011;44258;51.288;12.068;2023-05-20T11:10:54;19.63;;;9.35;;
58470;SDS011;44258;51.288;12.068;2023-05-20T11:13:42;21.17;;;12.18;;
58470;SDS011;44258;51.288;12.068;2023-05-20T11:16:28;20.98;;;10.90;;
58470;SDS011;44258;51.288;12.068;2023-05-20T11:19:15;22.25;;;12.30;;
58470;SDS011;44258;51.288;12.068;2023-05-20T11:22:03;21.08;;;12.55;;
58470;SDS011;44258;51.288;12.068;2023-05-20T11:24:52;22.05;;;11.75;;
58470;SDS011;44258;51.288;12.068;2023-05-20T11:27:41;23.27;;;12.30;;
58470;SDS011;44258;51.288;12.068;2023-05-20T11:30:28;22.10;;;13.60;;
58470;SDS011;44258;51.288;12.068;2023-05-20T11:33:16;20.48;;;10.98;;
58470;SDS011;44258;51.288;12.068;2023-05-20T11:36:03;21.52;;;11.68;;
58470;SDS011;44258;51.288;12.068;2023-05-20T11:38:51;20.15;;;11.27;;
58470;SDS011;44258;51.288;12.068;2023-05-20T11:41:37;20.25;;;12.40;;
58470;SDS011;44258;51.288;12.068;2023-05-20T11:44:30;21.55;;;11.75;;
58470;SDS011;44258;51.288;12.068;2023-05-20T11:47:23;18.10;;;10.60;;
58470;SDS011;44258;51.288;12.068;2023-05-20T11:50:15;19.27;;;10.68;;
58470;SDS011;44258;51.288;12.068;2023-05-20T11:53:02;20.17;;;12.00;;
58470;SDS011;44258;51.288;12.068;2023-05-20T11:55:51;19.67;;;9.93;;
58470;SDS011;44258;51.288;12.068;2023-05-20T11:58:48;19.15;;;10.73;;
58470;SDS011;44258;51.288;12.068;2023-05-20T12:01:38;18.83;;;10.65;;
58470;SDS011;44258;51.288;12.068;2023-05-20T12:04:26;18.85;;;11.50;;
58470;SDS011;44258;51.288;12.068;2023-05-20T12:10:00;15.90;;;8.38;;
58470;SDS011;44258;51.288;12.068;2023-05-20T12:12:47;16.80;;;9.23;;
58470;SDS011;44258;51.288;12.068;2023-05-20T12:15:34;18.65;;;10.57;;
58470;SDS011;44258;51.288;12.068;2023-05-20T12:18:22;19.67;;;7.63;;
58470;SDS011;44258;51.288;12.068;2023-05-20T12:21:09;20.27;;;9.75;;
58470;SDS011;44258;51.288;12.068;2023-05-20T12:23:57;20.08;;;10.13;;
58470;SDS011;44258;51.288;12.068;2023-05-20T12:26:44;19.25;;;9.38;;
58470;SDS011;44258;51.288;12.068;2023-05-20T12:32:17;19.45;;;9.70;;
58470;SDS011;44258;51.288;12.068;2023-05-20T12:35:07;18.58;;;9.55;;
58470;SDS011;44258;51.288;12.068;2023-05-20T12:37:55;17.38;;;9.48;;
58470;SDS011;44258;51.288;12.068;2023-05-20T12:40:42;17.67;;;9.15;;
58470;SDS011;44258;51.288;12.068;2023-05-20T12:43:29;18.42;;;10.52;;
58470;SDS011;44258;51.288;12.068;2023-05-20T12:46:16;21.23;;;10.80;;
58470;SDS011;44258;51.288;12.068;2023-05-20T12:49:03;21.13;;;10.25;;
58470;SDS011;44258;51.288;12.068;2023-05-20T12:51:52;18.55;;;10.80;;
58470;SDS011;44258;51.288;12.068;2023-05-20T12:54:38;18.55;;;10.57;;
58470;SDS011;44258;51.288;12.068;2023-05-20T12:57:26;18.40;;;10.23;;
58470;SDS011;44258;51.288;12.068;2023-05-20T13:00:13;20.38;;;10.55;;
58470;SDS011;44258;51.288;12.068;2023-05-20T13:03:01;18.30;;;9.23;;
58470;SDS011;44258;51.288;12.068;2023-05-20T13:05:48;17.42;;;11.15;;
58470;SDS011;44258;51.288;12.068;2023-05-20T13:08:36;20.02;;;10.38;;
58470;SDS011;44258;51.288;12.068;2023-05-20T13:11:23;18.30;;;10.57;;
58470;SDS011;44258;51.288;12.068;2023-05-20T13:14:13;21.10;;;11.20;;
58470;SDS011;44258;51.288;12.068;2023-05-20T13:17:00;18.23;;;10.23;;
58470;SDS011;44258;51.288;12.068;2023-05-20T13:19:47;17.02;;;10.45;;
58470;SDS011;44258;51.288;12.068;2023-05-20T13:22:33;21.25;;;11.25;;
58470;SDS011;44258;51.288;12.068;2023-05-20T13:25:27;18.05;;;10.05;;
58470;SDS011;44258;51.288;12.068;2023-05-20T13:28:16;20.70;;;10.13;;
58470;SDS011;44258;51.288;12.068;2023-05-20T13:31:05;19.27;;;10.52;;
58470;SDS011;44258;51.288;12.068;2023-05-20T13:33:52;21.02;;;11.88;;
58470;SDS011;44258;51.288;12.068;2023-05-20T13:36:39;21.13;;;11.60;;
58470;SDS011;44258;51.288;12.068;2023-05-20T13:39:26;19.60;;;10.30;;
58470;SDS011;44258;51.288;12.068;2023-05-20T13:42:15;17.73;;;9.25;;
58470;SDS011;44258;51.288;12.068;2023-05-20T13:45:05;19.88;;;11.90;;
58470;SDS011;44258;51.288;12.068;2023-05-20T13:47:53;20.02;;;11.68;;
58470;SDS011;44258;51.288;12.068;2023-05-20T13:50:41;21.33;;;10.90;;
58470;SDS011;44258;51.288;12.068;2023-05-20T13:53:28;25.08;;;11.35;;
58470;SDS011;44258;51.288;12.068;2023-05-20T13:56:15;21.90;;;12.13;;
58470;SDS011;44258;51.288;12.068;2023-05-20T13:59:04;21.25;;;11.57;;
58470;SDS011;44258;51.288;12.068;2023-05-20T14:01:52;22.10;;;11.55;;
58470;SDS011;44258;51.288;12.068;2023-05-20T14:04:41;20.13;;;11.13;;
58470;SDS011;44258;51.288;12.068;2023-05-20T14:07:31;21.90;;;11.32;;
58470;SDS011;44258;51.288;12.068;2023-05-20T14:10:18;18.33;;;10.15;;
58470;SDS011;44258;51.288;12.068;2023-05-20T14:13:08;19.60;;;11.20;;
58470;SDS011;44258;51.288;12.068;2023-05-20T14:15:56;22.17;;;11.38;;
58470;SDS011;44258;51.288;12.068;2023-05-20T14:18:43;24.20;;;11.82;;
58470;SDS011;44258;51.288;12.068;2023-05-20T14:21:30;20.40;;;12.38;;
58470;SDS011;44258;51.288;12.068;2023-05-20T14:24:17;17.98;;;9.32;;
58470;SDS011;44258;51.288;12.068;2023-05-20T14:27:04;24.08;;;11.30;;
58470;SDS011;44258;51.288;12.068;2023-05-20T14:29:51;19.88;;;11.38;;
58470;SDS011;44258;51.288;12.068;2023-05-20T14:32:39;22.55;;;10.35;;
58470;SDS011;44258;51.288;12.068;2023-05-20T14:35:26;20.88;;;11.90;;
58470;SDS011;44258;51.288;12.068;2023-05-20T14:38:13;19.80;;;11.52;;
58470;SDS011;44258;51.288;12.068;2023-05-20T14:41:01;23.08;;;11.73;;
58470;SDS011;44258;51.288;12.068;2023-05-20T14:43:48;20.38;;;11.93;;
58470;SDS011;44258;51.288;12.068;2023-05-20T14:46:34;21.85;;;10.73;;
58470;SDS011;44258;51.288;12.068;2023-05-20T14:49:24;20.90;;;10.30;;
58470;SDS011;44258;51.288;12.068;2023-05-20T14:52:11;19.77;;;10.93;;
58470;SDS011;44258;51.288;12.068;2023-05-20T14:54:58;18.88;;;10.45;;
58470;SDS011;44258;51.288;12.068;2023-05-20T14:57:48;19.98;;;11.02;;
58470;SDS011;44258;51.288;12.068;2023-05-20T15:00:37;18.88;;;11.02;;
58470;SDS011;44258;51.288;12.068;2023-05-20T15:03:25;17.92;;;9.18;;
58470;SDS011;44258;51.288;12.068;2023-05-20T15:06:13;19.13;;;10.55;;
58470;SDS011;44258;51.288;12.068;2023-05-20T15:09:00;18.30;;;9.57;;
58470;SDS011;44258;51.288;12.068;2023-05-20T15:11:47;16.45;;;8.85;;
58470;SDS011;44258;51.288;12.068;2023-05-20T15:14:34;17.40;;;9.18;;
58470;SDS011;44258;51.288;12.068;2023-05-20T15:17:20;18.52;;;11.63;;
58470;SDS011;44258;51.288;12.068;2023-05-20T15:20:08;18.48;;;9.57;;
58470;SDS011;44258;51.288;12.068;2023-05-20T15:22:56;15.05;;;8.55;;
58470;SDS011;44258;51.288;12.068;2023-05-20T15:25:43;17.00;;;8.68;;
58470;SDS011;44258;51.288;12.068;2023-05-20T15:28:30;16.00;;;8.20;;
58470;SDS011;44258;51.288;12.068;2023-05-20T15:31:17;17.42;;;10.07;;
58470;SDS011;44258;51.288;12.068;2023-05-20T15:34:05;15.55;;;8.10;;
58470;SDS011;44258;51.288;12.068;2023-05-20T15:36:52;13.80;;;7.18;;
58470;SDS011;44258;51.288;12.068;2023-05-20T15:39:44;17.27;;;9.00;;
58470;SDS011;44258;51.288;12.068;2023-05-20T15:42:32;18.58;;;9.80;;
58470;SDS011;44258;51.288;12.068;2023-05-20T15:45:26;17.25;;;10.25;;
58470;SDS011;44258;51.288;12.068;2023-05-20T15:48:14;15.77;;;9.30;;
58470;SDS011;44258;51.288;12.068;2023-05-20T15:51:02;16.70;;;8.60;;
58470;SDS011;44258;51.288;12.068;2023-05-20T15:53:53;18.25;;;10.20;;
58470;SDS011;44258;51.288;12.068;2023-05-20T15:56:41;15.52;;;8.85;;
58470;SDS011;44258;51.288;12.068;2023-05-20T15:59:28;16.27;;;8.98;;
58470;SDS011;44258;51.288;12.068;2023-05-20T16:02:15;15.15;;;8.50;;
58470;SDS011;44258;51.288;12.068;2023-05-20T16:05:02;12.77;;;7.25;;
58470;SDS011;44258;51.288;12.068;2023-05-20T16:07:49;16.75;;;8.93;;
58470;SDS011;44258;51.288;12.068;2023-05-20T16:10:37;16.02;;;8.75;;
58470;SDS011;44258;51.288;12.068;2023-05-20T16:13:25;15.40;;;9.10;;
58470;SDS011;44258;51.288;12.068;2023-05-20T16:16:12;16.13;;;9.05;;
58470;SDS011;44258;51.288;12.068;2023-05-20T16:18:59;14.98;;;9.20;;
58470;SDS011;44258;51.288;12.068;2023-05-20T16:21:47;21.33;;;8.52;;
58470;SDS011;44258;51.288;12.068;2023-05-20T16:24:34;19.83;;;9.07;;
58470;SDS011;44258;51.288;12.068;2023-05-20T16:27:21;14.77;;;8.75;;
58470;SDS011;44258;51.288;12.068;2023-05-20T16:30:10;15.35;;;7.78;;
58470;SDS011;44258;51.288;12.068;2023-05-20T16:32:57;17.33;;;9.52;;
58470;SDS011;44258;51.288;12.068;2023-05-20T16:35:45;15.43;;;9.32;;
58470;SDS011;44258;51.288;12.068;2023-05-20T16:38:32;14.32;;;8.13;;
58470;SDS011;44258;51.288;12.068;2023-05-20T16:41:19;15.05;;;9.35;;
58470;SDS011;44258;51.288;12.068;2023-05-20T16:44:07;19.77;;;11.02;;
58470;SDS011;44258;51.288;12.068;2023-05-20T16:46:55;15.38;;;9.50;;
58470;SDS011;44258;51.288;12.068;2023-05-20T16:49:42;16.77;;;10.27;;
58470;SDS011;44258;51.288;12.068;2023-05-20T16:52:29;17.40;;;10.05;;
58470;SDS011;44258;51.288;12.068;2023-05-20T16:55:16;18.48;;;11.30;;
58470;SDS011;44258;51.288;12.068;2023-05-20T16:58:03;16.67;;;10.23;;
58470;SDS011;44258;51.288;12.068;2023-05-20T17:00:52;18.52;;;11.02;;
58470;SDS011;44258;51.288;12.068;2023-05-20T17:03:41;19.08;;;10.75;;
58470;SDS011;44258;51.288;12.068;2023-05-20T17:06:30;18.42;;;10.32;;
58470;SDS011;44258;51.288;12.068;2023-05-20T17:09:19;18.88;;;10.25;;
58470;SDS011;44258;51.288;12.068;2023-05-20T17:12:11;19.23;;;10.57;;
58470;SDS011;44258;51.288;12.068;2023-05-20T17:14:58;16.60;;;9.02;;
58470;SDS011;44258;51.288;12.068;2023-05-20T17:17:45;25.63;;;18.10;;
58470;SDS011;44258;51.288;12.068;2023-05-20T17:20:36;22.50;;;14.55;;
58470;SDS011;44258;51.288;12.068;2023-05-20T17:23:28;20.42;;;11.02;;
58470;SDS011;44258;51.288;12.068;2023-05-20T17:26:20;20.95;;;11.45;;
58470;SDS011;44258;51.288;12.068;2023-05-20T17:29:11;19.85;;;10.57;;
58470;SDS011;44258;51.288;12.068;2023-05-20T17:32:07;17.75;;;10.27;;
58470;SDS011;44258;51.288;12.068;2023-05-20T17:34:54;17.88;;;10.32;;
58470;SDS011;44258;51.288;12.068;2023-05-20T17:37:42;19.05;;;10.85;;
58470;SDS011;44258;51.288;12.068;2023-05-20T17:40:29;20.25;;;11.38;;
58470;SDS011;44258;51.288;12.068;2023-05-20T17:43:16;23.92;;;14.02;;
58470;SDS011;44258;51.288;12.068;2023-05-20T17:46:03;24.15;;;14.15;;
58470;SDS011;44258;51.288;12.068;2023-05-20T17:48:53;20.23;;;12.48;;
58470;SDS011;44258;51.288;12.068;2023-05-20T17:51:41;20.05;;;11.30;;
58470;SDS011;44258;51.288;12.068;2023-05-20T17:54:29;20.50;;;11.82;;
58470;SDS011;44258;51.288;12.068;2023-05-20T17:57:16;20.17;;;11.80;;
58470;SDS011;44258;51.288;12.068;2023-05-20T18:00:05;18.20;;;10.48;;
58470;SDS011;44258;51.288;12.068;2023-05-20T18:02:53;17.48;;;10.32;;
58470;SDS011;44258;51.288;12.068;2023-05-20T18:05:44;22.52;;;11.23;;
58470;SDS011;44258;51.288;12.068;2023-05-20T18:08:34;20.17;;;9.60;;